Time;durP1;ratioP1;P1;durP2;ratioP2;P2;SDS_P1;SDS_P2;PMS_P1;PMS_P2;Temp;Humidity;BMP_temperature;BMP_pressure;BME280_temperature;BME280_humidity;BME280_pressure;Samples;Min_cycle;Max_cycle;Signal;HPM_P1;HPM_P2
2021/08/21 00:07:44;;;;;;;7.13;3.53;;;15.30;99.90;;;;;;20488337;28;20487;-80
2021/08/21 00:17:46;;;;;;;8.73;3.90;;;15.20;99.90;;;;;;20458080;28;20042;-80
2021/08/21 00:27:47;;;;;;;9.73;4.80;;;15.20;99.90;;;;;;20408345;28;20039;-80
2021/08/21 00:37:50;;;;;;;8.80;4.00;;;15.20;99.90;;;;;;20407771;28;21125;-80
2021/08/21 00:47:52;;;;;;;12.25;5.32;;;15.20;99.90;;;;;;20453509;28;20042;-80
2021/08/21 00:57:54;;;;;;;11.13;5.57;;;15.20;99.90;;;;;;20479385;28;20035;-80
2021/08/21 01:07:55;;;;;;;9.55;4.25;;;15.10;99.90;;;;;;20438693;28;20521;-80
2021/08/21 01:17:56;;;;;;;9.55;4.78;;;15.10;99.90;;;;;;20410136;28;20424;-80
2021/08/21 01:28:01;;;;;;;11.85;4.47;;;15.10;99.90;;;;;;20391875;28;20060;-80
2021/08/21 01:38:02;;;;;;;12.93;4.90;;;15.20;99.90;;;;;;20401057;28;20040;-81
2021/08/21 01:48:06;;;;;;;11.77;5.15;;;15.30;99.90;;;;;;20436687;28;20047;-79
2021/08/21 01:58:07;;;;;;;11.35;4.30;;;15.40;99.90;;;;;;20448539;28;20201;-80
2021/08/21 02:08:08;;;;;;;12.75;5.03;;;15.40;99.90;;;;;;20425906;28;20053;-80
2021/08/21 02:18:09;;;;;;;10.32;4.93;;;15.50;99.90;;;;;;20377833;28;20134;-80
2021/08/21 02:28:17;;;;;;;8.10;3.50;;;15.50;99.90;;;;;;20420588;28;20047;-80
2021/08/21 02:38:19;;;;;;;11.00;4.03;;;15.60;99.90;;;;;;20438616;28;20076;-81
2021/08/21 02:48:20;;;;;;;10.55;4.32;;;15.50;99.90;;;;;;20412196;28;20062;-80
2021/08/21 02:58:21;;;;;;;10.05;4.72;;;15.60;99.90;;;;;;20449068;28;20069;-79
2021/08/21 03:08:22;;;;;;;9.02;3.95;;;15.70;99.90;;;;;;20402899;28;20052;-80
2021/08/21 03:18:24;;;;;;;12.93;4.90;;;15.60;99.90;;;;;;20418598;28;20022;-80
2021/08/21 03:28:25;;;;;;;11.45;4.32;;;15.60;99.90;;;;;;20420982;28;20380;-80
2021/08/21 03:38:26;;;;;;;10.75;4.30;;;15.50;99.90;;;;;;20407568;28;20061;-80
2021/08/21 03:48:28;;;;;;;9.00;4.07;;;15.50;99.90;;;;;;20364944;28;20047;-81
2021/08/21 03:58:29;;;;;;;10.82;3.88;;;15.50;99.90;;;;;;20412640;28;20037;-81
2021/08/21 04:08:30;;;;;;;11.45;4.75;;;15.40;99.90;;;;;;20353266;28;20051;-81
2021/08/21 04:18:31;;;;;;;11.57;4.68;;;15.40;99.90;;;;;;20403344;28;20492;-79
2021/08/21 04:28:33;;;;;;;12.40;5.13;;;15.40;99.90;;;;;;20397504;28;20044;-80
2021/08/21 04:38:34;;;;;;;13.75;4.97;;;15.50;99.90;;;;;;20423015;28;20048;-81
2021/08/21 04:48:35;;;;;;;13.18;4.70;;;15.50;99.90;;;;;;20352796;28;20515;-80
2021/08/21 04:58:36;;;;;;;16.65;5.88;;;15.50;99.90;;;;;;20339099;28;20052;-80
2021/08/21 05:08:37;;;;;;;13.10;4.43;;;15.50;99.90;;;;;;20306702;28;20044;-80
2021/08/21 05:18:44;;;;;;;16.05;6.15;;;15.70;99.90;;;;;;20286014;28;20875;-80
2021/08/21 05:28:45;;;;;;;12.13;4.80;;;15.70;99.90;;;;;;20347523;28;20614;-79
2021/08/21 05:38:47;;;;;;;14.13;5.70;;;15.80;99.90;;;;;;20335000;28;20037;-80
2021/08/21 05:48:48;;;;;;;12.40;5.78;;;15.90;99.90;;;;;;20399562;28;20043;-80
2021/08/21 05:58:49;;;;;;;15.48;5.55;;;16.00;99.90;;;;;;20393131;28;20046;-80
2021/08/21 06:08:50;;;;;;;10.95;5.20;;;16.00;99.90;;;;;;20360922;28;20047;-80
2021/08/21 06:18:51;;;;;;;12.15;4.25;;;16.10;99.90;;;;;;20345316;28;20475;-80
2021/08/21 06:28:52;;;;;;;13.45;5.80;;;16.30;99.90;;;;;;20385270;28;20047;-80
2021/08/21 06:38:53;;;;;;;19.20;6.13;;;16.60;99.90;;;;;;20384305;28;20043;-80
2021/08/21 06:48:54;;;;;;;18.42;7.35;;;16.80;99.90;;;;;;20345470;28;20070;-83
2021/08/21 06:58:56;;;;;;;22.08;7.38;;;17.00;99.90;;;;;;20428173;28;20049;-85
2021/08/21 07:08:57;;;;;;;17.52;5.70;;;17.20;99.90;;;;;;20463199;28;20430;-81
2021/08/21 07:19:00;;;;;;;19.45;5.72;;;17.60;99.90;;;;;;20406421;28;20047;-83
2021/08/21 07:29:03;;;;;;;11.00;4.90;;;18.00;99.90;;;;;;20384200;28;20065;-82
2021/08/21 07:39:04;;;;;;;10.25;3.42;;;18.30;99.90;;;;;;20365331;28;20037;-83
2021/08/21 07:49:05;;;;;;;8.38;3.58;;;18.50;99.90;;;;;;20386239;28;20052;-81
2021/08/21 07:59:06;;;;;;;11.10;3.85;;;18.70;99.90;;;;;;20296302;28;20048;-83
2021/08/21 08:09:07;;;;;;;6.35;3.13;;;18.70;99.90;;;;;;20356614;28;20066;-83
2021/08/21 08:19:08;;;;;;;5.80;2.70;;;18.80;99.90;;;;;;20383956;28;20039;-82
2021/08/21 08:29:09;;;;;;;6.15;2.28;;;19.30;99.90;;;;;;20421386;28;20522;-81
2021/08/21 08:39:10;;;;;;;8.30;3.65;;;19.70;99.90;;;;;;20409219;28;20158;-82
2021/08/21 08:49:12;;;;;;;5.85;2.38;;;20.00;99.90;;;;;;20351108;28;20059;-81
2021/08/21 08:59:13;;;;;;;6.38;2.88;;;20.50;99.90;;;;;;20304704;28;20037;-81
2021/08/21 09:09:19;;;;;;;7.07;3.42;;;21.10;99.90;;;;;;20355900;28;20143;-82
2021/08/21 09:19:25;;;;;;;7.75;3.72;;;21.50;99.90;;;;;;20416185;28;20583;-81
2021/08/21 09:29:27;;;;;;;7.95;3.33;;;21.70;99.90;;;;;;20411836;28;20140;-82
2021/08/21 09:39:39;;;;;;;4.13;2.15;;;22.00;99.90;;;;;;20427743;28;20057;-81
2021/08/21 09:49:41;;;;;;;7.07;1.92;;;22.00;99.90;;;;;;20401474;28;20070;-81
2021/08/21 09:59:44;;;;;;;8.25;1.80;;;22.00;99.90;;;;;;20343507;28;20028;-81
2021/08/21 10:09:45;;;;;;;5.50;2.10;;;22.20;99.90;;;;;;20437916;28;20063;-81
2021/08/21 10:19:48;;;;;;;7.57;2.60;;;22.30;99.90;;;;;;20341654;28;20055;-81
2021/08/21 10:30:12;;;;;;;5.35;2.63;;;22.60;99.90;;;;;;20378718;28;20036;-81
2021/08/21 10:40:26;;;;;;;6.07;2.17;;;22.90;99.90;;;;;;20384418;28;20048;-81
2021/08/21 10:50:30;;;;;;;5.40;2.67;;;23.60;99.90;;;;;;20333623;28;21335;-82
2021/08/21 11:00:52;;;;;;;10.63;2.83;;;23.50;99.90;;;;;;20320101;28;20040;-81
2021/08/21 11:11:17;;;;;;;5.32;2.53;;;23.30;99.90;;;;;;20355761;28;20048;-80
2021/08/21 11:21:35;;;;;;;4.63;2.55;;;23.30;99.90;;;;;;20327188;28;20241;-81
2021/08/21 11:32:00;;;;;;;4.30;2.63;;;23.70;99.90;;;;;;20310850;28;20370;-81
2021/08/21 11:42:03;;;;;;;5.18;2.92;;;24.00;99.90;;;;;;20318184;28;20057;-80
2021/08/21 11:52:05;;;;;;;7.68;4.25;;;23.90;99.90;;;;;;20418020;28;20047;-81
2021/08/21 12:02:12;;;;;;;4.38;2.35;;;24.10;99.90;;;;;;20419823;28;20079;-81
2021/08/21 12:12:13;;;;;;;10.00;3.40;;;23.90;99.90;;;;;;20432401;28;20113;-81
2021/08/21 12:22:15;;;;;;;4.53;1.90;;;23.70;99.90;;;;;;20468829;28;20048;-81
2021/08/21 12:32:26;;;;;;;3.63;2.00;;;23.60;99.90;;;;;;20426716;28;20074;-81
2021/08/21 12:42:28;;;;;;;5.15;2.20;;;23.60;99.90;;;;;;20431103;28;20155;-81
2021/08/21 12:52:30;;;;;;;6.10;1.70;;;23.70;99.90;;;;;;20427996;28;20051;-81
2021/08/21 13:02:49;;;;;;;2.80;1.17;;;23.70;99.90;;;;;;20453826;28;20038;-81
2021/08/21 13:12:51;;;;;;;4.45;1.90;;;23.70;99.90;;;;;;20386965;28;20040;-81
2021/08/21 13:22:54;;;;;;;8.65;2.03;;;23.80;99.90;;;;;;20410238;28;20069;-81
2021/08/21 13:32:55;;;;;;;4.22;1.80;;;24.00;99.90;;;;;;20355872;28;20051;-80
2021/08/21 13:42:56;;;;;;;2.10;0.80;;;24.30;99.90;;;;;;20437168;28;20051;-80
2021/08/21 13:52:57;;;;;;;2.92;1.30;;;24.20;99.90;;;;;;20422945;28;20049;-80
2021/08/21 14:03:00;;;;;;;2.65;1.17;;;23.80;99.90;;;;;;20365923;28;20050;-80
2021/08/21 14:13:01;;;;;;;3.53;1.52;;;23.70;99.90;;;;;;20389372;28;20495;-80
2021/08/21 14:23:03;;;;;;;3.42;1.30;;;23.80;99.90;;;;;;20367475;28;20043;-80
2021/08/21 14:33:08;;;;;;;5.63;1.55;;;23.90;99.90;;;;;;20427526;28;20050;-80
2021/08/21 14:43:09;;;;;;;1.70;0.90;;;23.90;99.90;;;;;;20430188;28;20439;-80
2021/08/21 14:53:10;;;;;;;1.77;0.90;;;23.80;99.90;;;;;;20391627;28;20061;-80
2021/08/21 15:03:11;;;;;;;2.63;1.45;;;24.00;99.90;;;;;;20407179;28;20043;-81
2021/08/21 15:13:12;;;;;;;2.10;1.23;;;24.00;99.90;;;;;;20396955;28;20035;-81
2021/08/21 15:23:14;;;;;;;2.38;0.90;;;24.00;99.90;;;;;;20425473;28;20656;-80
2021/08/21 15:33:16;;;;;;;2.67;1.70;;;23.80;99.90;;;;;;20433518;28;20067;-80
2021/08/21 15:43:17;;;;;;;3.63;1.70;;;23.80;99.90;;;;;;20474366;28;20207;-80
2021/08/21 15:53:18;;;;;;;3.97;1.55;;;23.80;99.90;;;;;;20466460;28;20049;-81
2021/08/21 16:03:19;;;;;;;4.22;1.27;;;23.70;99.90;;;;;;20393090;28;20052;-81
2021/08/21 16:13:20;;;;;;;2.05;0.80;;;23.70;99.90;;;;;;20441358;28;20585;-80
2021/08/21 16:23:22;;;;;;;3.17;1.75;;;23.70;99.90;;;;;;20412087;28;20047;-81
2021/08/21 16:33:26;;;;;;;2.95;1.00;;;23.70;99.90;;;;;;20452607;28;20123;-81
2021/08/21 16:43:27;;;;;;;4.10;1.50;;;23.50;99.90;;;;;;20383499;28;20593;-81
2021/08/21 16:53:28;;;;;;;3.25;1.30;;;23.40;99.90;;;;;;20434037;28;20050;-81
2021/08/21 17:03:29;;;;;;;2.50;1.38;;;23.40;99.90;;;;;;20381665;28;20035;-81
2021/08/21 17:13:30;;;;;;;2.88;1.80;;;23.20;99.90;;;;;;20432861;28;20042;-80
2021/08/21 17:23:32;;;;;;;3.05;1.42;;;23.10;99.90;;;;;;20453201;28;20373;-81
2021/08/21 17:33:33;;;;;;;2.50;1.33;;;23.10;99.90;;;;;;20405722;28;20583;-81
2021/08/21 17:43:35;;;;;;;2.63;1.30;;;23.00;99.90;;;;;;20443215;28;20065;-81
2021/08/21 17:53:36;;;;;;;5.45;1.83;;;22.80;99.90;;;;;;20559025;28;20055;-79
2021/08/21 18:03:37;;;;;;;2.38;1.48;;;22.80;99.90;;;;;;20407625;28;20656;-80
2021/08/21 18:13:38;;;;;;;5.13;1.90;;;22.60;99.90;;;;;;20403021;28;20127;-81
2021/08/21 18:23:40;;;;;;;7.07;1.63;;;22.60;99.90;;;;;;20421604;28;20031;-81
2021/08/21 18:33:41;;;;;;;2.70;1.83;;;22.40;99.90;;;;;;20396177;28;20122;-80
2021/08/21 18:43:42;;;;;;;3.80;1.75;;;22.20;99.90;;;;;;20440250;28;20503;-80
2021/08/21 18:53:43;;;;;;;7.22;2.33;;;22.10;99.90;;;;;;20388577;28;20036;-80
2021/08/21 19:03:44;;;;;;;4.60;1.90;;;22.00;99.90;;;;;;20389212;28;20433;-81
2021/08/21 19:13:45;;;;;;;3.92;2.05;;;21.90;99.90;;;;;;20394727;28;20642;-81
2021/08/21 19:23:46;;;;;;;3.17;1.70;;;21.70;99.90;;;;;;20370251;28;20380;-80
2021/08/21 19:33:48;;;;;;;4.97;2.60;;;21.60;99.90;;;;;;20392895;28;20059;-81
2021/08/21 19:43:49;;;;;;;4.63;2.22;;;21.40;99.90;;;;;;20373374;28;20047;-80
2021/08/21 19:53:50;;;;;;;4.40;2.10;;;21.40;99.90;;;;;;20314615;28;20047;-81
2021/08/21 20:03:52;;;;;;;5.05;2.85;;;21.30;99.90;;;;;;20326904;28;20030;-81
2021/08/21 20:13:53;;;;;;;5.50;2.30;;;21.20;99.90;;;;;;20371688;28;20900;-81
2021/08/21 20:23:54;;;;;;;4.88;2.58;;;21.20;99.90;;;;;;20353893;28;20851;-81
2021/08/21 20:33:56;;;;;;;8.05;3.67;;;21.10;99.90;;;;;;20412732;28;20550;-81
2021/08/21 20:43:57;;;;;;;9.75;3.63;;;21.00;99.90;;;;;;20393864;28;20483;-81
2021/08/21 20:53:58;;;;;;;7.13;3.60;;;20.90;99.90;;;;;;20322747;28;20066;-81
2021/08/21 21:04:00;;;;;;;5.25;3.17;;;20.60;99.90;;;;;;20390221;28;20044;-81
2021/08/21 21:14:02;;;;;;;7.97;4.15;;;20.50;99.90;;;;;;20363036;28;20609;-81
2021/08/21 21:24:04;;;;;;;9.55;4.25;;;20.30;99.90;;;;;;20343790;28;20048;-81
2021/08/21 21:34:06;;;;;;;8.95;5.00;;;20.20;99.90;;;;;;20363730;28;20100;-82
2021/08/21 21:44:07;;;;;;;16.08;5.68;;;19.90;99.90;;;;;;20422798;28;20038;-82
2021/08/21 21:54:11;;;;;;;9.05;4.55;;;19.70;99.90;;;;;;20443915;28;20058;-83
2021/08/21 22:04:13;;;;;;;8.57;3.72;;;19.30;99.90;;;;;;20403134;28;20144;-82
2021/08/21 22:14:14;;;;;;;7.72;3.50;;;19.00;99.90;;;;;;20402747;28;20052;-82
2021/08/21 22:24:15;;;;;;;6.28;3.28;;;18.90;99.90;;;;;;20393282;28;20047;-82
2021/08/21 22:34:16;;;;;;;7.22;3.05;;;18.90;99.90;;;;;;20491172;28;20428;-83
2021/08/21 22:44:18;;;;;;;8.50;3.35;;;18.80;99.90;;;;;;20402894;28;20148;-83
2021/08/21 22:54:20;;;;;;;9.88;3.38;;;18.80;99.90;;;;;;20425677;28;20052;-82
2021/08/21 23:04:21;;;;;;;7.10;3.08;;;18.70;99.90;;;;;;20391257;28;20047;-83
2021/08/21 23:14:22;;;;;;;6.15;2.72;;;18.80;99.90;;;;;;20355768;28;20054;-83
2021/08/21 23:24:23;;;;;;;5.82;2.72;;;18.60;99.90;;;;;;20372653;28;20077;-83
2021/08/21 23:34:24;;;;;;;6.10;2.95;;;18.60;99.90;;;;;;20336086;28;20046;-84
2021/08/21 23:44:25;;;;;;;5.47;2.63;;;18.50;99.90;;;;;;20391894;28;20035;-83
2021/08/21 23:54:26;;;;;;;7.20;3.47;;;18.40;99.90;;;;;;20448531;28;20153;-84
